PWSweather.com
Personal Weather Stations
Station Observations
IONTARIO88
Lincoln, ON L0R

Lincoln, ON L0R

Lat: 43.1763563, Lon: -79.4719525

Elevation: 297

Station Type: Davis Vantage Pro 2 Plus

http://www.beamsvillewx.ca

Latest ConditionsUpdated 1:15:00 PM EST Sunday, Jan 26, 2020
Currently Today's Max Today's Min Today's Average
Temperature 40.8°F4.9°C 40.8°F4.9°C 34.9°F1.6°C 36.4°F2.4°C
Dew Point 34.5°F1.4°C 34.9°F1.6°C 31.6°F-0.2°C 33.0°F0.6°C
Winds 7.0 mph WSW11.3 kmh WSW 10.0 mph -16.1 kmh - - 5.4 mph 8.7 kmh
Wind Gusts 19.0 mph30.6 kmh 22.0 mph35.4 kmh - -
Humidity 78% 90% 78% 88%
Pressure 29.69 in1005.4 mb 29.74 in1007.1 mb 29.69 in1005.4 mb -
Hour Temp Dew Point Humidity Winds Wind Gusts Pressure Precip Precip Rate Daily Precip Total
01:15 PM 40.8°F4.9°C 34.5°F1.4°C 78% 7.0 mph WSW11.3 kmh WSW 19.0 mph30.6 kmh 29.69 in1005.4 mb 0.00 in0.0 mm 0.00 in0.0 mm 0.00 in0.0 mm
01:00 PM 40.5°F4.7°C 34.5°F1.4°C 79% 9.0 mph SW14.5 kmh SW 18.0 mph29.0 kmh 29.69 in1005.4 mb 0.00 in0.0 mm 0.00 in0.0 mm 0.00 in0.0 mm
12:45 PM 40.3°F4.6°C 34.9°F1.6°C 81% 9.0 mph WSW14.5 kmh WSW 18.0 mph29.0 kmh 29.70 in1005.8 mb 0.00 in0.0 mm 0.00 in0.0 mm 0.00 in0.0 mm
12:30 PM 39.9°F4.4°C 34.6°F1.4°C 81% 9.0 mph SW14.5 kmh SW 17.0 mph27.4 kmh 29.70 in1005.8 mb 0.00 in0.0 mm 0.00 in0.0 mm 0.00 in0.0 mm
12:15 PM 39.4°F4.1°C 34.6°F1.4°C 83% 9.0 mph SW14.5 kmh SW 18.0 mph29.0 kmh 29.71 in1006.1 mb 0.00 in0.0 mm 0.00 in0.0 mm 0.00 in0.0 mm
12:00 PM 39.0°F3.9°C 34.6°F1.4°C 84% 7.0 mph SW11.3 kmh SW 19.0 mph30.6 kmh 29.71 in1006.1 mb 0.00 in0.0 mm 0.00 in0.0 mm 0.00 in0.0 mm
11:45 AM 38.5°F3.6°C 34.4°F1.3°C 85% 8.0 mph SW12.9 kmh SW 20.0 mph32.2 kmh 29.72 in1006.4 mb 0.00 in0.0 mm 0.00 in0.0 mm 0.00 in0.0 mm
11:30 AM 38.5°F3.6°C 34.4°F1.3°C 85% 10.0 mph SW16.1 kmh SW 19.0 mph30.6 kmh 29.73 in1006.8 mb 0.00 in0.0 mm 0.00 in0.0 mm 0.00 in0.0 mm
11:15 AM 38.8°F3.8°C 34.7°F1.5°C 85% 6.0 mph SW9.7 kmh SW 17.0 mph27.4 kmh 29.72 in1006.4 mb 0.00 in0.0 mm 0.00 in0.0 mm 0.00 in0.0 mm
11:00 AM 38.1°F3.4°C 34.3°F1.3°C 86% 8.0 mph SW12.9 kmh SW 22.0 mph35.4 kmh 29.71 in1006.1 mb 0.00 in0.0 mm 0.00 in0.0 mm 0.00 in0.0 mm
10:45 AM 37.9°F3.3°C 34.1°F1.2°C 86% 7.0 mph SW11.3 kmh SW 15.0 mph24.1 kmh 29.71 in1006.1 mb 0.00 in0.0 mm 0.00 in0.0 mm 0.00 in0.0 mm
10:30 AM 37.8°F3.2°C 34.2°F1.2°C 87% 7.0 mph SW11.3 kmh SW 16.0 mph25.7 kmh 29.71 in1006.1 mb 0.00 in0.0 mm 0.00 in0.0 mm 0.00 in0.0 mm
10:15 AM 37.6°F3.1°C 34.1°F1.2°C 87% 5.0 mph SW8.0 kmh SW 13.0 mph20.9 kmh 29.71 in1006.1 mb 0.00 in0.0 mm 0.00 in0.0 mm 0.00 in0.0 mm
10:00 AM 37.2°F2.9°C 34.0°F1.1°C 88% 7.0 mph SW11.3 kmh SW 15.0 mph24.1 kmh 29.71 in1006.1 mb 0.00 in0.0 mm 0.00 in0.0 mm 0.00 in0.0 mm
09:45 AM 36.9°F2.7°C 33.6°F0.9°C 88% 7.0 mph SW11.3 kmh SW 17.0 mph27.4 kmh 29.71 in1006.1 mb 0.00 in0.0 mm 0.00 in0.0 mm 0.00 in0.0 mm
09:30 AM 36.7°F2.6°C 33.5°F0.8°C 88% 8.0 mph SW12.9 kmh SW 19.0 mph30.6 kmh 29.71 in1006.1 mb 0.00 in0.0 mm 0.00 in0.0 mm 0.00 in0.0 mm
09:15 AM 36.3°F2.4°C 33.4°F0.8°C 89% 7.0 mph SW11.3 kmh SW 14.0 mph22.5 kmh 29.71 in1006.1 mb 0.00 in0.0 mm 0.00 in0.0 mm 0.00 in0.0 mm
09:00 AM 36.1°F2.3°C 33.2°F0.7°C 89% 6.0 mph SW9.7 kmh SW 14.0 mph22.5 kmh 29.71 in1006.1 mb 0.00 in0.0 mm 0.00 in0.0 mm 0.00 in0.0 mm
08:45 AM 36.0°F2.2°C 33.0°F0.6°C 89% 6.0 mph SW9.7 kmh SW 13.0 mph20.9 kmh 29.71 in1006.1 mb 0.00 in0.0 mm 0.00 in0.0 mm 0.00 in0.0 mm
08:30 AM 36.0°F2.2°C 33.0°F0.6°C 89% 6.0 mph SW9.7 kmh SW 13.0 mph20.9 kmh 29.71 in1006.1 mb 0.00 in0.0 mm 0.00 in0.0 mm 0.00 in0.0 mm
08:15 AM 35.8°F2.1°C 32.9°F0.5°C 89% 6.0 mph SW9.7 kmh SW 12.0 mph19.3 kmh 29.71 in1006.1 mb 0.00 in0.0 mm 0.00 in0.0 mm 0.00 in0.0 mm
08:00 AM 35.8°F2.1°C 32.9°F0.5°C 89% 5.0 mph SW8.0 kmh SW 12.0 mph19.3 kmh 29.71 in1006.1 mb 0.00 in0.0 mm 0.00 in0.0 mm 0.00 in0.0 mm
07:45 AM 35.6°F2.0°C 32.7°F0.4°C 89% 5.0 mph SW8.0 kmh SW 11.0 mph17.7 kmh 29.71 in1006.1 mb 0.00 in0.0 mm 0.00 in0.0 mm 0.00 in0.0 mm
07:30 AM 35.4°F1.9°C 32.5°F0.3°C 89% 5.0 mph SW8.0 kmh SW 14.0 mph22.5 kmh 29.71 in1006.1 mb 0.00 in0.0 mm 0.00 in0.0 mm 0.00 in0.0 mm
07:15 AM 35.6°F2.0°C 32.7°F0.4°C 89% 4.0 mph SW6.4 kmh SW 9.0 mph14.5 kmh 29.71 in1006.1 mb 0.00 in0.0 mm 0.00 in0.0 mm 0.00 in0.0 mm
07:00 AM 35.6°F2.0°C 32.7°F0.4°C 89% 4.0 mph SW6.4 kmh SW 10.0 mph16.1 kmh 29.71 in1006.1 mb 0.00 in0.0 mm 0.00 in0.0 mm 0.00 in0.0 mm
06:45 AM 35.4°F1.9°C 32.8°F0.4°C 90% 5.0 mph SW8.0 kmh SW 13.0 mph20.9 kmh 29.71 in1006.1 mb 0.00 in0.0 mm 0.00 in0.0 mm 0.00 in0.0 mm
06:30 AM 35.4°F1.9°C 32.8°F0.4°C 90% 4.0 mph SW6.4 kmh SW 9.0 mph14.5 kmh 29.71 in1006.1 mb 0.00 in0.0 mm 0.00 in0.0 mm 0.00 in0.0 mm
06:15 AM 35.2°F1.8°C 32.6°F0.3°C 90% 4.0 mph SW6.4 kmh SW 11.0 mph17.7 kmh 29.71 in1006.1 mb 0.00 in0.0 mm 0.00 in0.0 mm 0.00 in0.0 mm
06:00 AM 35.2°F1.8°C 32.6°F0.3°C 90% 5.0 mph SW8.0 kmh SW 14.0 mph22.5 kmh 29.71 in1006.1 mb 0.00 in0.0 mm 0.00 in0.0 mm 0.00 in0.0 mm
05:45 AM 35.2°F1.8°C 32.6°F0.3°C 90% 5.0 mph SW8.0 kmh SW 11.0 mph17.7 kmh 29.71 in1006.1 mb 0.00 in0.0 mm 0.00 in0.0 mm 0.00 in0.0 mm
05:30 AM 35.2°F1.8°C 32.6°F0.3°C 90% 6.0 mph SW9.7 kmh SW 17.0 mph27.4 kmh 29.71 in1006.1 mb 0.00 in0.0 mm 0.00 in0.0 mm 0.00 in0.0 mm
05:15 AM 35.1°F1.7°C 32.4°F0.2°C 90% 6.0 mph SW9.7 kmh SW 14.0 mph22.5 kmh 29.71 in1006.1 mb 0.00 in0.0 mm 0.00 in0.0 mm 0.00 in0.0 mm
05:00 AM 35.1°F1.7°C 32.4°F0.2°C 90% 5.0 mph SW8.0 kmh SW 12.0 mph19.3 kmh 29.71 in1006.1 mb 0.00 in0.0 mm 0.00 in0.0 mm 0.00 in0.0 mm
04:45 AM 35.1°F1.7°C 32.4°F0.2°C 90% 4.0 mph SW6.4 kmh SW 12.0 mph19.3 kmh 29.71 in1006.1 mb 0.00 in0.0 mm 0.00 in0.0 mm 0.00 in0.0 mm
04:30 AM 35.1°F1.7°C 32.4°F0.2°C 90% 5.0 mph SSW8.0 kmh SSW 12.0 mph19.3 kmh 29.71 in1006.1 mb 0.00 in0.0 mm 0.00 in0.0 mm 0.00 in0.0 mm
04:15 AM 35.1°F1.7°C 32.4°F0.2°C 90% 4.0 mph SSW6.4 kmh SSW 8.0 mph12.9 kmh 29.71 in1006.1 mb 0.00 in0.0 mm 0.00 in0.0 mm 0.00 in0.0 mm
04:00 AM 35.1°F1.7°C 32.4°F0.2°C 90% 4.0 mph SW6.4 kmh SW 9.0 mph14.5 kmh 29.71 in1006.1 mb 0.00 in0.0 mm 0.00 in0.0 mm 0.00 in0.0 mm
03:45 AM 35.1°F1.7°C 32.4°F0.2°C 90% 4.0 mph SW6.4 kmh SW 11.0 mph17.7 kmh 29.72 in1006.4 mb 0.00 in0.0 mm 0.00 in0.0 mm 0.00 in0.0 mm
03:30 AM 35.1°F1.7°C 32.1°F0.1°C 89% 3.0 mph SW4.8 kmh SW 8.0 mph12.9 kmh 29.73 in1006.8 mb 0.00 in0.0 mm 0.00 in0.0 mm 0.00 in0.0 mm
03:15 AM 35.1°F1.7°C 32.1°F0.1°C 89% 3.0 mph SW4.8 kmh SW 9.0 mph14.5 kmh 29.73 in1006.8 mb 0.00 in0.0 mm 0.00 in0.0 mm 0.00 in0.0 mm
03:00 AM 35.1°F1.7°C 32.1°F0.1°C 89% 3.0 mph SW4.8 kmh SW 7.0 mph11.3 kmh 29.73 in1006.8 mb 0.00 in0.0 mm 0.00 in0.0 mm 0.00 in0.0 mm
02:45 AM 35.1°F1.7°C 32.1°F0.1°C 89% 3.0 mph SW4.8 kmh SW 8.0 mph12.9 kmh 29.73 in1006.8 mb 0.00 in0.0 mm 0.00 in0.0 mm 0.00 in0.0 mm
02:30 AM 35.1°F1.7°C 32.1°F0.1°C 89% 4.0 mph SW6.4 kmh SW 10.0 mph16.1 kmh 29.73 in1006.8 mb 0.00 in0.0 mm 0.00 in0.0 mm 0.00 in0.0 mm
02:15 AM 34.9°F1.6°C 31.7°F-0.2°C 88% 3.0 mph SW4.8 kmh SW 9.0 mph14.5 kmh 29.73 in1006.8 mb 0.00 in0.0 mm 0.00 in0.0 mm 0.00 in0.0 mm
02:00 AM 35.1°F1.7°C 31.6°F-0.2°C 87% 2.0 mph SW3.2 kmh SW 9.0 mph14.5 kmh 29.72 in1006.4 mb 0.00 in0.0 mm 0.00 in0.0 mm 0.00 in0.0 mm
01:45 AM 35.4°F1.9°C 31.9°F-0.1°C 87% 3.0 mph WSW4.8 kmh WSW 7.0 mph11.3 kmh 29.73 in1006.8 mb 0.00 in0.0 mm 0.00 in0.0 mm 0.00 in0.0 mm
01:30 AM 36.0°F2.2°C 32.2°F0.1°C 86% 3.0 mph SW4.8 kmh SW 6.0 mph9.7 kmh 29.72 in1006.4 mb 0.00 in0.0 mm 0.00 in0.0 mm 0.00 in0.0 mm
01:15 AM 36.0°F2.2°C 31.9°F-0.1°C 85% 5.0 mph SW8.0 kmh SW 11.0 mph17.7 kmh 29.73 in1006.8 mb 0.00 in0.0 mm 0.00 in0.0 mm 0.00 in0.0 mm
01:00 AM 35.8°F2.1°C 32.0°F0.0°C 86% 4.0 mph SW6.4 kmh SW 9.0 mph14.5 kmh 29.73 in1006.8 mb 0.00 in0.0 mm 0.00 in0.0 mm 0.00 in0.0 mm
12:45 AM 36.0°F2.2°C 32.5°F0.3°C 87% 5.0 mph SW8.0 kmh SW 10.0 mph16.1 kmh 29.73 in1006.8 mb 0.00 in0.0 mm 0.00 in0.0 mm 0.00 in0.0 mm
12:30 AM 36.3°F2.4°C 32.8°F0.4°C 87% 4.0 mph SW6.4 kmh SW 12.0 mph19.3 kmh 29.74 in1007.1 mb 0.00 in0.0 mm 0.00 in0.0 mm 0.00 in0.0 mm
12:15 AM 36.3°F2.4°C 33.1°F0.6°C 88% 4.0 mph SW6.4 kmh SW 12.0 mph19.3 kmh 29.74 in1007.1 mb 0.00 in0.0 mm 0.00 in0.0 mm 0.00 in0.0 mm
12:00 AM 36.3°F2.4°C 33.1°F0.6°C 88% 3.0 mph SW4.8 kmh SW 11.0 mph17.7 kmh 29.74 in1007.1 mb 0.00 in0.0 mm 0.00 in0.0 mm 0.00 in0.0 mm